Time;durP1;ratioP1;P1;durP2;ratioP2;P2;SDS_P1;SDS_P2;PMS_P1;PMS_P2;Temp;Humidity;BMP_temperature;BMP_pressure;BME280_temperature;BME280_humidity;BME280_pressure;Samples;Min_cycle;Max_cycle;Signal;HPM_P1;HPM_P2
2022/05/29 00:01:12;;;;;;;5.43;2.50;;;11.90;99.90;;;;;;5012257;28;20442;-52
2022/05/29 00:03:39;;;;;;;2.23;1.43;;;11.90;99.90;;;;;;5012668;28;20426;-46
2022/05/29 00:06:06;;;;;;;3.03;1.63;;;11.90;99.90;;;;;;5012692;28;20593;-47
2022/05/29 00:08:36;;;;;;;8.37;1.70;;;11.90;99.90;;;;;;5012345;28;20466;-47
2022/05/29 00:11:03;;;;;;;3.80;1.33;;;11.90;99.90;;;;;;5012769;28;20431;-46
2022/05/29 00:13:31;;;;;;;4.73;2.60;;;11.90;99.90;;;;;;5012572;28;20434;-46
2022/05/29 00:15:57;;;;;;;2.73;1.57;;;11.90;99.90;;;;;;5012388;28;20431;-47
2022/05/29 00:18:25;;;;;;;5.20;1.80;;;11.80;99.90;;;;;;5012497;28;20504;-43
2022/05/29 00:20:55;;;;;;;4.43;1.53;;;11.80;99.90;;;;;;5012450;28;20473;-41
2022/05/29 00:23:22;;;;;;;2.90;2.13;;;11.80;99.90;;;;;;5012043;28;20446;-52
2022/05/29 00:25:51;;;;;;;6.00;1.90;;;11.80;99.90;;;;;;5011829;28;20767;-44
2022/05/29 00:28:18;;;;;;;5.03;3.50;;;11.70;99.90;;;;;;5012307;28;20434;-49
2022/05/29 00:30:46;;;;;;;9.57;1.83;;;11.70;99.90;;;;;;5011857;28;20458;-47
2022/05/29 00:33:14;;;;;;;7.53;1.60;;;11.60;99.90;;;;;;5004167;28;20478;-52
2022/05/29 00:35:41;;;;;;;8.93;2.20;;;11.70;99.90;;;;;;5012615;28;20797;-42
2022/05/29 00:38:09;;;;;;;6.57;1.77;;;11.60;99.90;;;;;;5012427;28;20516;-44
2022/05/29 00:40:44;;;;;;;3.57;1.83;;;11.60;99.90;;;;;;5012814;28;20454;-42
2022/05/29 00:43:13;;;;;;;5.90;1.57;;;11.60;99.90;;;;;;5012549;28;20454;-41
2022/05/29 00:45:48;;;;;;;3.87;1.70;;;11.60;99.90;;;;;;5011208;28;20461;-54
2022/05/29 00:48:17;;;;;;;2.37;1.70;;;11.60;99.90;;;;;;5010372;28;20499;-47
2022/05/29 00:50:44;;;;;;;4.03;1.63;;;11.60;99.90;;;;;;5011950;28;20499;-47
2022/05/29 00:53:14;;;;;;;4.87;1.80;;;11.60;99.90;;;;;;5009808;28;20454;-54
2022/05/29 00:55:43;;;;;;;4.90;1.50;;;11.60;99.90;;;;;;5009472;28;20519;-47
2022/05/29 00:58:11;;;;;;;4.13;1.73;;;11.60;99.90;;;;;;5011444;28;20941;-49
2022/05/29 01:00:39;;;;;;;9.30;1.90;;;11.60;99.90;;;;;;5012639;28;20465;-43
2022/05/29 01:03:07;;;;;;;2.97;1.23;;;11.60;99.90;;;;;;5012279;28;20478;-47
2022/05/29 01:05:35;;;;;;;7.97;1.77;;;11.50;99.90;;;;;;5012454;28;20452;-42
2022/05/29 01:08:09;;;;;;;3.90;1.63;;;11.50;99.90;;;;;;5012249;28;20426;-48
2022/05/29 01:10:47;;;;;;;8.37;3.20;;;11.50;99.90;;;;;;5011593;28;20439;-50
2022/05/29 01:13:28;;;;;;;3.90;1.70;;;11.50;99.90;;;;;;5010767;28;20434;-43
2022/05/29 01:16:02;;;;;;;3.90;1.40;;;11.40;99.90;;;;;;5011098;28;20481;-45
2022/05/29 01:18:40;;;;;;;3.50;1.50;;;11.40;99.90;;;;;;5011209;28;20488;-54
2022/05/29 01:21:36;;;;;;;9.07;1.70;;;11.40;99.90;;;;;;5011837;28;20473;-52
2022/05/29 01:24:22;;;;;;;4.83;1.80;;;11.50;99.90;;;;;;5011447;28;20461;-45
2022/05/29 01:27:23;;;;;;;6.30;1.73;;;11.50;99.90;;;;;;5011293;28;20470;-44
2022/05/29 01:30:03;;;;;;;5.77;1.80;;;11.40;99.90;;;;;;5033310;28;20480;-45
2022/05/29 01:32:36;;;;;;;4.10;2.03;;;11.40;99.90;;;;;;5011456;28;20448;-42
2022/05/29 01:35:09;;;;;;;6.40;1.53;;;11.40;99.90;;;;;;5011270;28;20422;-44
2022/05/29 01:37:43;;;;;;;1.97;1.77;;;11.40;99.90;;;;;;5011659;28;20470;-43
2022/05/29 01:40:16;;;;;;;10.43;1.67;;;11.40;99.90;;;;;;5011432;28;20469;-45
2022/05/29 01:42:46;;;;;;;6.03;2.00;;;11.40;99.90;;;;;;5011041;28;20434;-42
2022/05/29 01:45:24;;;;;;;2.87;1.90;;;11.30;99.90;;;;;;5010956;28;20515;-49
2022/05/29 01:47:56;;;;;;;9.37;2.27;;;11.30;99.90;;;;;;5011750;28;20446;-44
2022/05/29 01:50:27;;;;;;;11.50;2.10;;;11.30;99.90;;;;;;5010920;28;20503;-49
2022/05/29 01:52:59;;;;;;;2.30;1.53;;;11.30;99.90;;;;;;5010427;28;20453;-47
2022/05/29 01:55:30;;;;;;;4.37;1.80;;;11.30;99.90;;;;;;5011120;28;20410;-43
2022/05/29 01:58:03;;;;;;;4.37;1.63;;;11.30;99.90;;;;;;5010382;28;20524;-46
2022/05/29 02:00:32;;;;;;;8.63;2.33;;;11.30;99.90;;;;;;5011046;28;20421;-44
2022/05/29 02:03:05;;;;;;;5.87;1.30;;;11.30;99.90;;;;;;5011395;28;20442;-50
2022/05/29 02:05:38;;;;;;;6.40;1.70;;;11.30;99.90;;;;;;5010955;28;20431;-43
2022/05/29 02:08:13;;;;;;;5.57;1.80;;;11.40;99.90;;;;;;5011077;28;20460;-41
2022/05/29 02:10:45;;;;;;;7.23;2.53;;;11.40;99.90;;;;;;5010906;28;20489;-49
2022/05/29 02:13:18;;;;;;;6.73;1.73;;;11.40;99.90;;;;;;5010877;28;20410;-46
2022/05/29 02:15:53;;;;;;;4.70;1.50;;;11.40;99.90;;;;;;5010750;28;20469;-46
2022/05/29 02:18:24;;;;;;;4.67;1.70;;;11.40;99.90;;;;;;5011740;28;20454;-46
2022/05/29 02:20:55;;;;;;;4.60;1.93;;;11.40;99.90;;;;;;5012022;28;20418;-44
2022/05/29 02:23:29;;;;;;;2.53;1.70;;;11.40;99.90;;;;;;5005286;28;20434;-52
2022/05/29 02:25:58;;;;;;;7.07;2.37;;;11.40;99.90;;;;;;5012570;28;20457;-51
2022/05/29 02:28:29;;;;;;;4.43;1.63;;;11.40;99.90;;;;;;5014732;28;20472;-41
2022/05/29 02:31:09;;;;;;;6.13;1.87;;;11.40;99.90;;;;;;5014819;28;20485;-43
2022/05/29 02:33:48;;;;;;;3.23;2.23;;;11.40;99.90;;;;;;5015584;28;20436;-35
2022/05/29 02:36:23;;;;;;;6.87;2.00;;;11.50;99.90;;;;;;5014823;28;20434;-46
2022/05/29 02:39:10;;;;;;;4.53;1.30;;;11.50;99.90;;;;;;5014349;28;20448;-46
2022/05/29 02:41:49;;;;;;;5.53;2.47;;;11.50;99.90;;;;;;5013884;28;20445;-47
2022/05/29 02:44:27;;;;;;;6.60;1.97;;;11.50;99.90;;;;;;5014604;28;20426;-45
2022/05/29 02:47:00;;;;;;;8.60;1.87;;;11.50;99.90;;;;;;5014214;28;20515;-47
2022/05/29 02:49:31;;;;;;;7.67;2.40;;;11.50;99.90;;;;;;5013727;28;20430;-44
2022/05/29 02:52:05;;;;;;;6.90;1.80;;;11.50;99.90;;;;;;5014260;28;20434;-42
2022/05/29 02:54:34;;;;;;;4.70;1.37;;;11.40;99.90;;;;;;5014510;28;20430;-46
2022/05/29 02:57:02;;;;;;;3.00;1.80;;;11.40;99.90;;;;;;5013768;28;20481;-43
2022/05/29 02:59:36;;;;;;;3.73;1.20;;;11.40;99.90;;;;;;5013814;28;20495;-43
2022/05/29 03:02:12;;;;;;;3.27;1.80;;;11.40;99.90;;;;;;5013667;28;20430;-45
2022/05/29 03:04:49;;;;;;;4.67;1.97;;;11.40;99.90;;;;;;5013864;28;20571;-49
2022/05/29 03:07:24;;;;;;;5.70;2.07;;;11.40;99.90;;;;;;5014292;28;20502;-41
2022/05/29 03:09:59;;;;;;;6.33;1.60;;;11.40;99.90;;;;;;5015448;28;20437;-41
2022/05/29 03:12:35;;;;;;;9.00;2.10;;;11.40;99.90;;;;;;5014857;28;20471;-51
2022/05/29 03:15:21;;;;;;;8.83;2.33;;;11.40;99.90;;;;;;5014807;28;20460;-41
2022/05/29 03:17:58;;;;;;;8.83;2.07;;;11.40;99.90;;;;;;5014684;28;20551;-41
2022/05/29 03:20:35;;;;;;;5.33;2.00;;;11.30;99.90;;;;;;5014596;28;20426;-43
2022/05/29 03:23:16;;;;;;;6.87;2.13;;;11.30;99.90;;;;;;5014872;28;20694;-47
2022/05/29 03:25:46;;;;;;;10.03;2.27;;;11.30;99.90;;;;;;5014839;28;20454;-41
2022/05/29 03:28:20;;;;;;;8.47;2.30;;;11.30;99.90;;;;;;5015466;28;20480;-40
2022/05/29 03:30:50;;;;;;;9.37;2.37;;;11.30;99.90;;;;;;5015179;28;20444;-48
2022/05/29 03:33:19;;;;;;;3.90;2.20;;;11.30;99.90;;;;;;5015136;28;20437;-40
2022/05/29 03:36:03;;;;;;;7.50;1.70;;;11.40;99.90;;;;;;5014767;28;20454;-43
2022/05/29 03:38:30;;;;;;;4.50;1.93;;;11.30;99.90;;;;;;5014652;28;20466;-39
2022/05/29 03:40:57;;;;;;;6.40;1.80;;;11.40;99.90;;;;;;5014659;28;20484;-38
2022/05/29 03:43:24;;;;;;;2.03;1.53;;;11.40;99.90;;;;;;5015011;28;20872;-39
2022/05/29 03:45:52;;;;;;;8.03;2.37;;;11.40;99.90;;;;;;5005989;28;20458;-49
2022/05/29 03:48:20;;;;;;;9.23;1.90;;;11.40;99.90;;;;;;5005314;28;20478;-51
2022/05/29 03:50:50;;;;;;;6.80;1.77;;;11.40;99.90;;;;;;5012866;28;20552;-50
2022/05/29 03:53:18;;;;;;;6.83;2.00;;;11.40;99.90;;;;;;5013518;28;20473;-47
2022/05/29 03:55:45;;;;;;;3.73;2.10;;;11.40;99.90;;;;;;5013565;28;20450;-48
2022/05/29 03:58:12;;;;;;;2.97;1.90;;;11.40;99.90;;;;;;5009327;28;20535;-49
2022/05/29 04:00:40;;;;;;;10.53;2.17;;;11.30;99.90;;;;;;5008502;28;20458;-40
2022/05/29 04:03:06;;;;;;;3.53;1.63;;;11.30;99.90;;;;;;5012613;28;20482;-47
2022/05/29 04:05:34;;;;;;;8.63;2.07;;;11.30;99.90;;;;;;5012553;28;20457;-42
2022/05/29 04:13:34;;;;;;;4.70;2.03;;;11.40;99.90;;;;;;5013369;28;20406;-40
2022/05/29 04:16:00;;;;;;;2.20;2.00;;;11.40;99.90;;;;;;5012210;28;20431;-47
2022/05/29 04:18:29;;;;;;;4.63;2.17;;;11.40;99.90;;;;;;5012121;28;20493;-51
2022/05/29 04:20:57;;;;;;;9.43;2.53;;;11.40;99.90;;;;;;5012712;28;20450;-48
2022/05/29 04:23:26;;;;;;;4.10;1.80;;;11.50;99.90;;;;;;5013072;28;20587;-41
2022/05/29 04:25:53;;;;;;;3.30;1.50;;;11.50;99.90;;;;;;5012466;28;20453;-43
2022/05/29 04:28:22;;;;;;;5.20;2.10;;;11.50;99.90;;;;;;5012116;28;20448;-46
2022/05/29 04:30:49;;;;;;;5.83;2.70;;;11.60;99.90;;;;;;5004663;28;20523;-44
2022/05/29 04:33:16;;;;;;;3.13;1.77;;;11.60;99.90;;;;;;5012296;28;20472;-44
2022/05/29 04:35:54;;;;;;;2.53;1.87;;;11.60;99.90;;;;;;5012597;28;20942;-46
2022/05/29 04:38:24;;;;;;;5.83;1.90;;;11.60;99.90;;;;;;5006095;28;20492;-47
2022/05/29 04:40:51;;;;;;;3.63;1.60;;;11.60;99.90;;;;;;5011738;28;20461;-48
2022/05/29 04:43:19;;;;;;;4.30;2.10;;;11.60;99.90;;;;;;5004053;28;20478;-42
2022/05/29 04:45:46;;;;;;;6.90;2.20;;;11.60;99.90;;;;;;5011473;28;20479;-45
2022/05/29 04:48:14;;;;;;;4.90;2.10;;;11.60;99.90;;;;;;5010719;28;20470;-43
2022/05/29 04:50:41;;;;;;;3.80;1.57;;;11.60;99.90;;;;;;5011401;28;20446;-45
2022/05/29 04:53:07;;;;;;;3.27;1.90;;;11.60;99.90;;;;;;5011310;28;20453;-43
2022/05/29 04:55:39;;;;;;;4.70;2.40;;;11.60;99.90;;;;;;5012316;28;20492;-48
2022/05/29 04:58:09;;;;;;;4.07;2.30;;;11.60;99.90;;;;;;5011880;28;20470;-49
2022/05/29 05:00:36;;;;;;;4.67;2.27;;;11.60;99.90;;;;;;5011739;28;20454;-44
2022/05/29 05:03:02;;;;;;;4.87;1.83;;;11.60;99.90;;;;;;5003948;28;20461;-44
2022/05/29 05:05:29;;;;;;;4.47;2.30;;;11.70;99.90;;;;;;5012255;28;20450;-47
2022/05/29 05:07:56;;;;;;;11.00;2.70;;;11.70;99.90;;;;;;5012440;28;20456;-48
2022/05/29 05:10:23;;;;;;;4.73;2.10;;;11.80;99.90;;;;;;5011858;28;20454;-41
2022/05/29 05:12:53;;;;;;;4.83;2.30;;;11.80;99.90;;;;;;5011508;28;20500;-45
2022/05/29 05:15:19;;;;;;;5.93;2.40;;;11.80;99.90;;;;;;5012012;28;20445;-45
2022/05/29 05:17:46;;;;;;;3.83;2.07;;;11.80;99.90;;;;;;5012076;28;20504;-49
2022/05/29 05:20:14;;;;;;;3.20;2.43;;;11.80;99.90;;;;;;5011534;28;20469;-44
2022/05/29 05:22:41;;;;;;;4.00;1.83;;;11.90;99.90;;;;;;5011400;28;20862;-49
2022/05/29 05:25:10;;;;;;;1.93;1.50;;;11.90;99.90;;;;;;5010746;28;20481;-44
2022/05/29 05:27:37;;;;;;;6.53;2.13;;;12.00;99.90;;;;;;5011605;28;20446;-40
2022/05/29 05:30:06;;;;;;;7.20;2.37;;;12.00;99.90;;;;;;5011603;28;20490;-41
2022/05/29 05:32:33;;;;;;;4.60;3.00;;;12.00;99.90;;;;;;5011348;28;20453;-41
2022/05/29 05:35:03;;;;;;;5.13;2.77;;;12.00;99.90;;;;;;5011398;28;20430;-45
2022/05/29 05:37:30;;;;;;;11.00;2.10;;;12.00;99.90;;;;;;5011327;28;20473;-48
2022/05/29 05:39:57;;;;;;;7.80;2.30;;;12.00;99.90;;;;;;5011565;28;20438;-48
2022/05/29 05:42:24;;;;;;;5.60;2.40;;;12.00;99.90;;;;;;5011741;28;20419;-46
2022/05/29 05:44:51;;;;;;;8.83;2.20;;;12.10;99.90;;;;;;5011951;28;20422;-41
2022/05/29 05:47:24;;;;;;;4.23;2.10;;;12.10;99.90;;;;;;5011784;28;20442;-39
2022/05/29 05:49:51;;;;;;;4.13;2.70;;;12.20;99.90;;;;;;5011666;28;20510;-46
2022/05/29 05:52:26;;;;;;;5.10;2.00;;;12.20;99.90;;;;;;5011430;28;20445;-41
2022/05/29 05:54:53;;;;;;;6.00;2.80;;;12.20;99.90;;;;;;5011878;28;21038;-46
2022/05/29 05:57:20;;;;;;;3.40;2.60;;;12.20;99.90;;;;;;5010278;28;20487;-43
2022/05/29 05:59:50;;;;;;;7.17;2.80;;;12.10;99.90;;;;;;5007757;28;20482;-51
2022/05/29 06:02:16;;;;;;;4.90;2.73;;;12.10;99.90;;;;;;5012529;28;20470;-47
2022/05/29 06:04:45;;;;;;;3.93;2.50;;;12.10;99.90;;;;;;5014574;28;20457;-43
2022/05/29 06:07:12;;;;;;;7.60;2.57;;;12.00;99.90;;;;;;5014254;28;20478;-47
2022/05/29 06:09:38;;;;;;;4.90;2.60;;;12.10;99.90;;;;;;5014185;28;20448;-39
2022/05/29 06:12:07;;;;;;;4.63;2.43;;;12.10;99.90;;;;;;5014262;28;20457;-42
2022/05/29 06:14:35;;;;;;;3.57;1.87;;;12.10;99.90;;;;;;5014263;28;20482;-41
2022/05/29 06:17:01;;;;;;;7.70;2.73;;;12.10;99.90;;;;;;5014529;28;20433;-49
2022/05/29 06:19:28;;;;;;;17.67;2.60;;;12.10;99.90;;;;;;5006537;28;20523;-43
2022/05/29 06:21:56;;;;;;;7.40;2.80;;;12.10;99.90;;;;;;5014278;28;20446;-44
2022/05/29 06:24:23;;;;;;;6.27;2.60;;;12.10;99.90;;;;;;5014513;28;20438;-45
2022/05/29 06:26:50;;;;;;;3.33;2.37;;;12.20;99.90;;;;;;5014581;28;20504;-47
2022/05/29 06:29:16;;;;;;;5.47;2.23;;;12.30;99.90;;;;;;5014525;28;20921;-49
2022/05/29 06:31:43;;;;;;;7.60;3.27;;;12.40;99.90;;;;;;5014036;28;20631;-49
2022/05/29 06:34:10;;;;;;;6.97;2.53;;;12.40;99.90;;;;;;5014302;28;20477;-46
2022/05/29 06:36:37;;;;;;;4.03;3.10;;;12.50;99.90;;;;;;5014041;28;20438;-43
2022/05/29 06:39:05;;;;;;;6.30;2.33;;;12.60;99.90;;;;;;5014148;28;20490;-41
2022/05/29 06:41:33;;;;;;;5.77;2.70;;;12.70;99.90;;;;;;5014195;28;20457;-47
2022/05/29 06:44:00;;;;;;;3.57;2.33;;;12.70;99.90;;;;;;5013878;28;20512;-52
2022/05/29 06:46:27;;;;;;;5.73;2.30;;;12.70;99.90;;;;;;5013990;28;20457;-43
2022/05/29 06:48:54;;;;;;;4.63;2.60;;;12.80;99.90;;;;;;5014326;28;20514;-45
2022/05/29 06:51:23;;;;;;;5.33;2.50;;;12.90;99.90;;;;;;5014302;28;20418;-47
2022/05/29 06:53:50;;;;;;;8.03;2.17;;;13.00;99.90;;;;;;5014539;28;20472;-39
2022/05/29 06:56:19;;;;;;;8.37;2.50;;;13.10;99.90;;;;;;5014219;28;20542;-48
2022/05/29 06:58:47;;;;;;;6.10;3.37;;;13.10;99.90;;;;;;5013883;28;20502;-51
2022/05/29 07:07:00;;;;;;;2.77;2.07;;;12.90;99.90;;;;;;5014080;28;20448;-46
2022/05/29 07:09:27;;;;;;;5.33;2.40;;;12.80;99.90;;;;;;5014399;28;20450;-42
2022/05/29 07:12:01;;;;;;;3.73;2.17;;;12.70;99.90;;;;;;5013631;28;20461;-48
2022/05/29 07:14:28;;;;;;;2.50;1.93;;;12.70;99.90;;;;;;5014379;28;20437;-42
2022/05/29 07:16:56;;;;;;;4.70;2.87;;;12.70;99.90;;;;;;5014541;28;20438;-43
2022/05/29 07:19:28;;;;;;;4.93;2.17;;;12.70;99.90;;;;;;5013994;28;20486;-47
2022/05/29 07:21:57;;;;;;;3.60;1.63;;;12.90;99.90;;;;;;5014370;28;20445;-37
2022/05/29 07:24:23;;;;;;;7.20;2.47;;;13.00;99.90;;;;;;5013634;28;20481;-48
2022/05/29 07:26:50;;;;;;;5.27;2.17;;;13.40;99.90;;;;;;5013956;28;20464;-46
2022/05/29 07:29:18;;;;;;;9.47;2.63;;;13.70;99.90;;;;;;5013498;28;20466;-49
2022/05/29 07:31:45;;;;;;;4.03;1.80;;;14.00;99.90;;;;;;5013703;28;20484;-49
2022/05/29 07:34:12;;;;;;;5.93;2.47;;;14.60;99.90;;;;;;5014264;28;20446;-43
2022/05/29 07:36:39;;;;;;;11.87;4.40;;;15.20;99.90;;;;;;5004791;28;20454;-40
2022/05/29 07:39:06;;;;;;;12.53;2.70;;;15.30;99.90;;;;;;5007129;28;20478;-49
2022/05/29 07:44:19;;;;;;;4.80;2.23;;;15.10;99.90;;;;;;5013462;28;20437;-40
2022/05/29 07:46:45;;;;;;;5.67;2.43;;;14.90;99.90;;;;;;5013437;28;20458;-46
2022/05/29 07:49:12;;;;;;;4.70;2.43;;;14.70;99.90;;;;;;5012813;28;20450;-43
2022/05/29 07:51:39;;;;;;;3.87;2.00;;;14.50;99.90;;;;;;5012639;28;20462;-46
2022/05/29 07:54:06;;;;;;;3.00;1.97;;;14.30;99.90;;;;;;5012829;28;20791;-47
2022/05/29 07:56:32;;;;;;;3.83;2.00;;;14.20;99.90;;;;;;5013388;28;20454;-46
2022/05/29 07:59:02;;;;;;;4.07;1.60;;;14.00;99.90;;;;;;5001139;28;20519;-42
2022/05/29 08:01:30;;;;;;;3.80;1.83;;;13.90;99.90;;;;;;5014070;28;20433;-47
2022/05/29 08:03:56;;;;;;;2.80;2.00;;;13.80;99.90;;;;;;5013475;28;20463;-45
2022/05/29 08:06:23;;;;;;;7.13;1.80;;;13.80;99.90;;;;;;5013495;28;20446;-46
2022/05/29 08:08:50;;;;;;;3.50;2.13;;;13.60;99.90;;;;;;5013164;28;20496;-41
2022/05/29 08:11:18;;;;;;;2.93;1.63;;;13.50;99.90;;;;;;5013157;28;20461;-41
2022/05/29 08:13:45;;;;;;;3.70;2.20;;;13.60;99.90;;;;;;5012204;28;20446;-44
2022/05/29 08:16:15;;;;;;;3.63;2.27;;;13.50;99.90;;;;;;5012596;28;20433;-48
2022/05/29 08:18:44;;;;;;;2.77;1.40;;;13.60;99.90;;;;;;5012985;28;20513;-50
2022/05/29 08:21:10;;;;;;;3.10;2.50;;;13.60;99.90;;;;;;5012931;28;20458;-48
2022/05/29 08:23:37;;;;;;;5.50;2.70;;;13.70;99.90;;;;;;5013147;28;20453;-48
2022/05/29 08:31:33;;;;;;;2.20;1.40;;;14.10;99.90;;;;;;5014041;28;20472;-44
2022/05/29 08:34:01;;;;;;;8.73;2.40;;;14.10;99.90;;;;;;5012928;28;20458;-50
2022/05/29 08:36:28;;;;;;;5.73;2.40;;;14.00;99.90;;;;;;5013422;28;20441;-44
2022/05/29 08:38:56;;;;;;;3.87;2.03;;;14.00;99.90;;;;;;5012853;28;20466;-47
2022/05/29 08:41:38;;;;;;;4.40;1.97;;;14.00;99.90;;;;;;5012860;28;20501;-51
2022/05/29 08:44:07;;;;;;;2.37;1.50;;;14.00;99.90;;;;;;5012798;28;20492;-49
2022/05/29 08:46:38;;;;;;;4.80;2.00;;;14.10;99.90;;;;;;5012629;28;20445;-47
2022/05/29 08:49:10;;;;;;;2.47;2.00;;;14.30;99.90;;;;;;5012348;28;20414;-46
2022/05/29 08:52:01;;;;;;;3.70;1.77;;;14.60;99.90;;;;;;5012686;28;20427;-52
2022/05/29 08:54:38;;;;;;;3.17;1.90;;;14.90;99.90;;;;;;5013404;28;20434;-50
2022/05/29 08:57:14;;;;;;;8.50;2.23;;;15.60;99.90;;;;;;5012136;28;20474;-45
2022/05/29 08:59:49;;;;;;;2.50;1.47;;;16.60;99.90;;;;;;5011941;28;20470;-42
2022/05/29 09:02:32;;;;;;;3.30;1.90;;;17.90;99.90;;;;;;5002892;28;20496;-51
2022/05/29 09:05:04;;;;;;;2.80;2.27;;;19.60;99.90;;;;;;5013046;28;20446;-50
2022/05/29 09:07:33;;;;;;;3.93;1.80;;;21.10;99.90;;;;;;5013302;28;20454;-47
2022/05/29 09:10:05;;;;;;;4.60;1.90;;;22.10;98.20;;;;;;5013292;28;20771;-44
2022/05/29 09:12:37;;;;;;;3.20;1.70;;;22.10;94.70;;;;;;5013427;28;20411;-49
2022/05/29 09:15:10;;;;;;;2.37;2.00;;;21.70;93.30;;;;;;5013198;28;20423;-47
2022/05/29 09:17:44;;;;;;;2.43;1.40;;;21.10;93.50;;;;;;5005325;28;20450;-44
2022/05/29 09:20:24;;;;;;;6.07;2.77;;;20.30;94.70;;;;;;5013345;28;20449;-45
2022/05/29 09:22:51;;;;;;;2.80;1.57;;;19.50;94.90;;;;;;5013364;28;20422;-43
2022/05/29 09:25:27;;;;;;;4.27;2.33;;;18.80;94.90;;;;;;5012614;28;20438;-54
2022/05/29 09:27:54;;;;;;;5.53;2.30;;;18.40;97.60;;;;;;5011731;28;20444;-48
2022/05/29 09:30:20;;;;;;;4.53;2.37;;;17.90;99.80;;;;;;5011758;28;20468;-50
2022/05/29 09:32:50;;;;;;;3.30;1.63;;;17.50;99.90;;;;;;5003259;28;20499;-55
2022/05/29 09:35:26;;;;;;;3.20;2.07;;;17.10;99.90;;;;;;5011505;28;20449;-47
2022/05/29 09:38:00;;;;;;;4.00;1.63;;;16.60;99.90;;;;;;5011894;28;20411;-46
2022/05/29 09:40:30;;;;;;;5.33;2.70;;;16.30;99.90;;;;;;5012990;28;20495;-47
2022/05/29 09:42:57;;;;;;;5.40;1.93;;;16.00;99.90;;;;;;5005925;28;20521;-52
2022/05/29 09:45:28;;;;;;;2.07;1.80;;;15.70;99.90;;;;;;5010655;28;20492;-46
2022/05/29 09:50:47;;;;;;;3.27;2.07;;;15.20;99.90;;;;;;5004983;28;20430;-51
2022/05/29 09:53:17;;;;;;;4.70;1.63;;;14.80;99.90;;;;;;5011708;28;20465;-45
2022/05/29 09:56:00;;;;;;;7.07;2.03;;;14.60;99.90;;;;;;5012064;28;20468;-45
2022/05/29 09:58:31;;;;;;;6.70;1.93;;;14.50;99.90;;;;;;5012457;28;20477;-48
2022/05/29 10:01:02;;;;;;;5.10;1.63;;;14.50;99.90;;;;;;5004889;28;20460;-47
2022/05/29 10:03:39;;;;;;;2.40;1.57;;;14.50;99.90;;;;;;5011731;28;20499;-44
2022/05/29 10:06:13;;;;;;;5.50;1.80;;;14.50;99.90;;;;;;5011869;28;20449;-50
2022/05/29 10:08:40;;;;;;;6.47;2.50;;;14.60;99.90;;;;;;5011737;28;20422;-46
2022/05/29 10:11:15;;;;;;;4.03;1.20;;;14.70;99.90;;;;;;5011652;28;20507;-48
2022/05/29 10:13:43;;;;;;;6.80;3.30;;;14.80;99.90;;;;;;5012054;28;20457;-48
2022/05/29 10:16:11;;;;;;;4.43;2.67;;;15.00;99.90;;;;;;5011475;28;20457;-48
2022/05/29 10:18:39;;;;;;;4.53;2.43;;;15.30;99.90;;;;;;5012077;28;20459;-48
2022/05/29 10:21:11;;;;;;;3.10;1.60;;;15.30;99.90;;;;;;5007459;28;20474;-55
2022/05/29 10:23:39;;;;;;;3.37;2.40;;;15.40;99.90;;;;;;5009087;28;20446;-45
2022/05/29 10:26:10;;;;;;;3.87;1.93;;;15.50;99.90;;;;;;5012435;28;20498;-52
2022/05/29 10:28:39;;;;;;;5.43;1.80;;;15.40;99.90;;;;;;5012302;28;20474;-44
2022/05/29 10:31:08;;;;;;;4.50;2.07;;;15.20;99.90;;;;;;5012276;28;20442;-51
2022/05/29 10:33:36;;;;;;;7.07;2.27;;;15.00;99.90;;;;;;5012633;28;20473;-51
2022/05/29 10:36:14;;;;;;;2.67;2.00;;;14.90;99.90;;;;;;5006109;28;20890;-54
2022/05/29 10:38:41;;;;;;;2.37;1.63;;;14.80;99.90;;;;;;5013420;28;20489;-53
2022/05/29 10:41:11;;;;;;;3.77;2.07;;;14.70;99.90;;;;;;5012069;28;20477;-55
2022/05/29 10:43:42;;;;;;;4.70;1.60;;;14.60;99.90;;;;;;5012459;28;20497;-47
2022/05/29 10:46:16;;;;;;;2.57;1.93;;;14.40;99.90;;;;;;5011763;28;20426;-60
2022/05/29 10:49:22;;;;;;;3.63;1.73;;;14.40;99.90;;;;;;5015082;28;20446;-46
2022/05/29 10:52:25;;;;;;;3.87;1.90;;;14.30;99.90;;;;;;5015280;28;20454;-47
2022/05/29 10:55:17;;;;;;;4.10;1.70;;;14.40;99.90;;;;;;5006586;28;20498;-46
2022/05/29 10:58:06;;;;;;;3.23;1.70;;;14.30;99.90;;;;;;5015330;28;20456;-43
2022/05/29 11:00:52;;;;;;;5.30;1.70;;;14.40;99.90;;;;;;5015172;28;20450;-46
2022/05/29 11:03:51;;;;;;;9.83;2.60;;;14.40;99.90;;;;;;5014700;28;20483;-59
2022/05/29 11:06:48;;;;;;;3.70;2.70;;;14.60;99.90;;;;;;5015202;28;20448;-48
2022/05/29 11:09:40;;;;;;;4.30;2.30;;;14.70;99.90;;;;;;5015304;28;20474;-49
2022/05/29 11:12:17;;;;;;;2.83;2.20;;;14.80;99.90;;;;;;5014615;28;20418;-48
2022/05/29 11:14:56;;;;;;;7.67;2.63;;;14.90;99.90;;;;;;5015142;28;20437;-57
2022/05/29 11:17:35;;;;;;;5.33;2.20;;;14.90;99.90;;;;;;5014854;28;20438;-53
2022/05/29 11:20:17;;;;;;;4.27;3.07;;;15.00;99.90;;;;;;5015672;28;20462;-44
2022/05/29 11:22:53;;;;;;;4.40;3.20;;;14.90;99.90;;;;;;5005897;28;20441;-49
2022/05/29 11:25:35;;;;;;;3.47;3.17;;;14.90;99.90;;;;;;5014387;28;20440;-48
2022/05/29 11:28:21;;;;;;;4.23;2.27;;;15.10;99.90;;;;;;5014237;28;20439;-48
2022/05/29 11:31:02;;;;;;;4.10;2.33;;;15.30;99.90;;;;;;5014346;28;20456;-49
2022/05/29 11:33:44;;;;;;;2.70;2.23;;;15.80;99.90;;;;;;5014678;28;20470;-46
2022/05/29 11:36:27;;;;;;;2.10;1.13;;;16.40;99.90;;;;;;5005012;28;20430;-48
2022/05/29 11:39:18;;;;;;;2.03;1.70;;;16.90;99.90;;;;;;5014272;28;20450;-42
2022/05/29 11:41:52;;;;;;;5.67;2.33;;;17.30;99.90;;;;;;5013883;28;20468;-47
2022/05/29 11:44:25;;;;;;;8.93;2.30;;;17.60;99.90;;;;;;5014100;28;20482;-46
2022/05/29 11:52:37;;;;;;;3.40;2.00;;;17.10;99.90;;;;;;5012934;28;20448;-50
2022/05/29 11:55:08;;;;;;;3.83;2.60;;;16.60;99.90;;;;;;5013399;28;20446;-43
2022/05/29 11:57:43;;;;;;;4.00;1.90;;;16.30;99.90;;;;;;5013689;28;20422;-47
2022/05/29 12:00:18;;;;;;;4.80;2.37;;;16.10;99.90;;;;;;5012733;28;20457;-46
2022/05/29 12:02:54;;;;;;;2.93;1.90;;;15.90;99.90;;;;;;5011034;28;20855;-50
2022/05/29 12:05:29;;;;;;;5.03;1.90;;;16.00;99.90;;;;;;5010579;28;20430;-50
2022/05/29 12:08:02;;;;;;;5.73;3.50;;;16.10;99.90;;;;;;5014560;28;20426;-53
2022/05/29 12:10:35;;;;;;;2.60;2.20;;;16.20;99.90;;;;;;5013903;28;20427;-46
2022/05/29 12:13:09;;;;;;;6.30;2.20;;;16.20;99.90;;;;;;5013132;28;20479;-50
2022/05/29 12:15:37;;;;;;;5.80;2.10;;;16.20;99.90;;;;;;5012205;28;20460;-52
2022/05/29 12:18:07;;;;;;;2.60;1.70;;;16.20;99.90;;;;;;5013602;28;20515;-45
2022/05/29 12:20:42;;;;;;;1.60;1.33;;;16.20;99.90;;;;;;5013300;28;20486;-42
2022/05/29 12:23:27;;;;;;;2.87;2.20;;;16.10;99.90;;;;;;5013339;28;20446;-48
2022/05/29 12:26:00;;;;;;;2.73;2.20;;;16.10;99.90;;;;;;5012962;28;20492;-45
2022/05/29 12:28:40;;;;;;;4.10;1.87;;;16.20;99.90;;;;;;5013456;28;20435;-51
2022/05/29 12:31:09;;;;;;;3.70;2.20;;;16.30;99.90;;;;;;5003304;28;20434;-47
2022/05/29 12:33:36;;;;;;;3.47;2.33;;;16.40;99.90;;;;;;5013291;28;20443;-46
2022/05/29 12:36:12;;;;;;;9.90;6.40;;;16.60;99.90;;;;;;5012940;28;20427;-46
2022/05/29 12:39:00;;;;;;;2.70;2.10;;;16.80;99.90;;;;;;5013530;28;20468;-44
2022/05/29 12:42:02;;;;;;;1.90;1.70;;;17.00;99.90;;;;;;5012818;28;20496;-45
2022/05/29 12:44:57;;;;;;;2.33;1.80;;;17.10;99.90;;;;;;5013229;28;20473;-44
2022/05/29 12:47:58;;;;;;;3.10;1.63;;;17.00;99.90;;;;;;5012728;28;20451;-47
2022/05/29 12:50:55;;;;;;;3.70;1.73;;;17.10;99.90;;;;;;5012334;28;20461;-48
2022/05/29 12:53:59;;;;;;;2.60;1.53;;;17.00;99.90;;;;;;5013165;28;20447;-47
2022/05/29 12:56:50;;;;;;;2.00;1.60;;;16.90;99.90;;;;;;5013095;28;20495;-52
2022/05/29 12:59:35;;;;;;;4.90;1.73;;;16.70;99.90;;;;;;5003641;28;20539;-47
2022/05/29 13:02:16;;;;;;;2.90;2.10;;;16.70;99.90;;;;;;5011992;28;20443;-44
2022/05/29 13:05:06;;;;;;;2.43;2.03;;;16.80;99.90;;;;;;5012221;28;20470;-51
2022/05/29 13:07:52;;;;;;;2.07;1.67;;;17.00;99.90;;;;;;5012246;28;20458;-46
2022/05/29 13:10:20;;;;;;;3.97;1.90;;;17.20;99.90;;;;;;5012255;28;20476;-40
2022/05/29 13:12:52;;;;;;;2.93;2.33;;;17.30;99.90;;;;;;5012817;28;20422;-47
2022/05/29 13:15:30;;;;;;;3.50;1.73;;;17.30;99.90;;;;;;5011510;28;20500;-43
2022/05/29 13:18:11;;;;;;;4.30;1.70;;;17.30;99.90;;;;;;5012059;28;20486;-47
2022/05/29 13:21:06;;;;;;;2.63;1.40;;;17.00;99.90;;;;;;5011888;28;20503;-45
2022/05/29 13:23:35;;;;;;;3.43;1.60;;;16.60;99.90;;;;;;5011460;28;20422;-48
2022/05/29 13:26:24;;;;;;;2.83;1.93;;;16.30;99.90;;;;;;5072845;22;20502;-48
2022/05/29 13:29:03;;;;;;;4.90;2.20;;;15.90;99.90;;;;;;5075818;28;20438;-48
2022/05/29 13:32:12;;;;;;;2.53;1.83;;;15.80;99.90;;;;;;5071369;28;20458;-53
2022/05/29 13:34:41;;;;;;;1.93;1.20;;;15.70;99.90;;;;;;5070908;28;20501;-43
2022/05/29 13:37:10;;;;;;;4.80;2.20;;;15.60;99.90;;;;;;5075248;28;20482;-46
2022/05/29 13:39:57;;;;;;;5.83;2.77;;;15.30;99.90;;;;;;5075207;28;20442;-52
2022/05/29 13:42:48;;;;;;;3.70;1.47;;;15.20;99.90;;;;;;5074961;28;20471;-47